Time;durP1;ratioP1;P1;durP2;ratioP2;P2;SDS_P1;SDS_P2;PMS_P1;PMS_P2;Temp;Humidity;BMP_temperature;BMP_pressure;BME280_temperature;BME280_humidity;BME280_pressure;Samples;Min_cycle;Max_cycle;Signal;HPM_P1;HPM_P2
2022/11/26 00:01:15;;;;;;;;;;;4.20;99.90;;;;;;5069562;28;19909;-69
2022/11/26 00:03:41;;;;;;;;;;;4.20;99.90;;;;;;5069952;28;19913;-69
2022/11/26 00:06:17;;;;;;;;;;;4.20;99.90;;;;;;5069500;28;20357;-69
2022/11/26 00:08:43;;;;;;;;;;;;;;;;;;5070552;28;20317;-69
2022/11/26 00:11:12;;;;;;;;;;;4.20;99.90;;;;;;5068465;28;19955;-69
2022/11/26 00:13:38;;;;;;;;;;;;;;;;;;5069120;28;19962;-69
2022/11/26 00:16:03;;;;;;;;;;;4.20;99.90;;;;;;5067829;28;19912;-69
2022/11/26 00:18:29;;;;;;;;;;;;;;;;;;5078493;28;20003;-69
2022/11/26 00:20:55;;;;;;;;;;;4.20;99.90;;;;;;5075556;28;19935;-69
2022/11/26 00:23:21;;;;;;;;;;;;;;;;;;5069270;28;19923;-69
2022/11/26 00:25:48;;;;;;;;;;;4.30;99.90;;;;;;5066976;28;20242;-69
2022/11/26 00:28:22;;;;;;;;;;;4.30;99.90;;;;;;5062816;28;19909;-69
2022/11/26 00:30:47;;;;;;;;;;;4.30;99.90;;;;;;5054177;28;19913;-69
2022/11/26 00:33:12;;;;;;;;;;;4.30;99.90;;;;;;5051907;28;19924;-69
2022/11/26 00:35:38;;;;;;;;;;;;;;;;;;5056767;28;19989;-69
2022/11/26 00:38:04;;;;;;;;;;;4.30;99.90;;;;;;5059996;28;19920;-69
2022/11/26 00:40:30;;;;;;;;;;;;;;;;;;5056477;28;19909;-69
2022/11/26 00:42:55;;;;;;;;;;;4.30;99.90;;;;;;5074797;28;19913;-69
2022/11/26 00:45:21;;;;;;;;;;;;;;;;;;5051735;28;19913;-69
2022/11/26 00:47:47;;;;;;;;;;;4.20;99.90;;;;;;5056866;28;19919;-69
2022/11/26 00:50:13;;;;;;;;;;;;;;;;;;5054452;28;19909;-69
2022/11/26 00:52:38;;;;;;;;;;;4.10;99.90;;;;;;5061840;28;19913;-69
2022/11/26 00:55:08;;;;;;;;;;;4.00;99.90;;;;;;5069991;28;20417;-69
2022/11/26 00:57:34;;;;;;;;;;;4.00;99.90;;;;;;5069855;28;19908;-69
2022/11/26 01:00:00;;;;;;;;;;;;;;;;;;5068793;28;20056;-69
2022/11/26 01:02:25;;;;;;;;;;;3.90;99.90;;;;;;5061645;28;19942;-69
2022/11/26 01:04:51;;;;;;;;;;;;;;;;;;5049385;28;19955;-69
2022/11/26 01:07:17;;;;;;;;;;;;;;;;;;5050311;28;19940;-69
2022/11/26 01:09:43;;;;;;;;;;;;;;;;;;5064858;28;19912;-69
2022/11/26 01:12:13;;;;;;;;;;;3.80;99.90;;;;;;5069409;28;20353;-69
2022/11/26 01:14:39;;;;;;;;;;;;;;;;;;5069548;28;20045;-69
2022/11/26 01:17:04;;;;;;;;;;;3.80;99.90;;;;;;5069490;28;20003;-69
2022/11/26 01:19:30;;;;;;;;;;;;;;;;;;5071015;28;20356;-69
2022/11/26 01:21:56;;;;;;;;;;;3.70;99.90;;;;;;5069310;28;19908;-69
2022/11/26 01:24:22;;;;;;;;;;;;;;;;;;5065612;28;19913;-69
2022/11/26 01:26:47;;;;;;;;;;;3.70;99.90;;;;;;5060969;28;19913;-69
2022/11/26 01:29:16;;;;;;;;;;;3.70;99.90;;;;;;5065706;28;19909;-69
2022/11/26 01:31:42;;;;;;;;;;;3.70;99.90;;;;;;5058711;28;20357;-69
2022/11/26 01:34:08;;;;;;;;;;;3.60;99.90;;;;;;5070213;28;19915;-69
2022/11/26 01:36:34;;;;;;;;;;;3.60;99.90;;;;;;5069870;28;19912;-69
2022/11/26 01:39:00;;;;;;;;;;;;;;;;;;5069316;28;19908;-69
2022/11/26 01:41:43;;;;;;;;;;;3.50;99.90;;;;;;5070153;28;20280;-69
2022/11/26 01:44:08;;;;;;;;;;;;;;;;;;5058131;28;19951;-69
2022/11/26 01:46:34;;;;;;;;;;;;;;;;;;5069636;28;20001;-69
2022/11/26 01:49:00;;;;;;;;;;;;;;;;;;5077147;28;19932;-69
2022/11/26 01:51:26;;;;;;;;;;;;;;;;;;5070010;28;19991;-69
2022/11/26 01:53:58;;;;;;;;;;;3.30;99.90;;;;;;5061772;28;19917;-69
2022/11/26 01:56:24;;;;;;;;;;;;;;;;;;5065013;28;19913;-69
2022/11/26 01:58:52;;;;;;;;;;;3.30;99.90;;;;;;5069553;28;20079;-69
2022/11/26 02:01:18;;;;;;;;;;;3.30;99.90;;;;;;5069842;28;19995;-69
2022/11/26 02:03:52;;;;;;;;;;;3.30;99.90;;;;;;5069493;28;20053;-69
2022/11/26 02:06:19;;;;;;;;;;;3.30;99.90;;;;;;5070044;28;20007;-69
2022/11/26 02:08:45;;;;;;;;;;;;;;;;;;5069096;28;19909;-69
2022/11/26 02:11:11;;;;;;;;;;;;;;;;;;5069714;28;19912;-69
2022/11/26 02:13:36;;;;;;;;;;;3.30;99.90;;;;;;5069700;28;20423;-69
2022/11/26 02:16:04;;;;;;;;;;;3.20;99.90;;;;;;5069918;28;19916;-69
2022/11/26 02:18:30;;;;;;;;;;;;;;;;;;5076530;28;19909;-69
2022/11/26 02:21:04;;;;;;;;;;;3.20;99.90;;;;;;5073007;28;20018;-69
2022/11/26 02:23:38;;;;;;;;;;;3.10;99.90;;;;;;5073284;28;20280;-69
2022/11/26 02:26:22;;;;;;;;;;;3.10;99.90;;;;;;5073603;28;19908;-69
2022/11/26 02:28:57;;;;;;;;;;;3.10;99.90;;;;;;5072897;28;20294;-69
2022/11/26 02:31:28;;;;;;;;;;;3.10;99.90;;;;;;5073713;28;19928;-69
2022/11/26 02:34:04;;;;;;;;;;;3.10;99.90;;;;;;5072952;28;19948;-69
2022/11/26 02:36:30;;;;;;;;;;;;;;;;;;5073378;28;19913;-70
2022/11/26 02:38:56;;;;;;;;;;;;;;;;;;5072338;28;19909;-69
2022/11/26 02:41:22;;;;;;;;;;;;;;;;;;5073453;28;19923;-69
2022/11/26 02:43:47;;;;;;;;;;;3.00;99.90;;;;;;5072634;28;19908;-69
2022/11/26 02:46:16;;;;;;;;;;;3.00;99.90;;;;;;5073286;28;19959;-69
2022/11/26 02:48:42;;;;;;;;;;;;;;;;;;5075823;28;19969;-69
2022/11/26 02:51:11;;;;;;;;;;;3.00;99.90;;;;;;5073257;28;19916;-69
2022/11/26 02:53:36;;;;;;;;;;;;;;;;;;5066804;28;19908;-69
2022/11/26 02:56:04;;;;;;;;;;;2.90;99.90;;;;;;5064886;28;19923;-69
2022/11/26 02:58:30;;;;;;;;;;;2.90;99.90;;;;;;5072830;28;20341;-69
2022/11/26 03:00:57;;;;;;;;;;;3.00;99.90;;;;;;5073609;28;19923;-69
2022/11/26 03:03:24;;;;;;;;;;;;;;;;;;5072864;28;20336;-69
2022/11/26 03:05:50;;;;;;;;;;;;;;;;;;5088084;28;19943;-69
2022/11/26 03:08:16;;;;;;;;;;;2.80;99.90;;;;;;5072309;28;20337;-69
2022/11/26 03:10:42;;;;;;;;;;;;;;;;;;5072454;28;19931;-69
2022/11/26 03:13:07;;;;;;;;;;;2.80;99.90;;;;;;5072700;28;19955;-69
2022/11/26 03:15:33;;;;;;;;;;;;;;;;;;5072510;28;19967;-69
2022/11/26 03:17:58;;;;;;;;;;;2.70;99.90;;;;;;5074111;28;19916;-69
2022/11/26 03:20:24;;;;;;;;;;;2.80;99.90;;;;;;5072884;28;20261;-69
2022/11/26 03:22:50;;;;;;;;;;;;;;;;;;5071527;28;20277;-69
2022/11/26 03:25:15;;;;;;;;;;;2.70;99.90;;;;;;5072698;28;19951;-69
2022/11/26 03:27:41;;;;;;;;;;;;;;;;;;5070931;28;20431;-69
2022/11/26 03:30:07;;;;;;;;;;;2.60;99.90;;;;;;5072777;28;19908;-69
2022/11/26 03:32:33;;;;;;;;;;;;;;;;;;5071970;28;20349;-69
2022/11/26 03:34:58;;;;;;;;;;;2.60;99.90;;;;;;5071652;28;19978;-69
2022/11/26 03:37:24;;;;;;;;;;;2.60;99.90;;;;;;5071919;28;19921;-69
2022/11/26 03:39:50;;;;;;;;;;;;;;;;;;5071894;28;19912;-69
2022/11/26 03:42:17;;;;;;;;;;;2.60;99.90;;;;;;5071485;28;20992;-69
2022/11/26 03:44:42;;;;;;;;;;;2.60;99.90;;;;;;5071652;28;20007;-69
2022/11/26 03:47:08;;;;;;;;;;;2.60;99.90;;;;;;5071797;28;19913;-69
2022/11/26 03:49:33;;;;;;;;;;;2.50;99.90;;;;;;5071508;28;19999;-69
2022/11/26 03:51:59;;;;;;;;;;;2.50;99.90;;;;;;5071680;28;20307;-69
2022/11/26 03:54:24;;;;;;;;;;;;;;;;;;5083220;28;20323;-69
2022/11/26 03:56:50;;;;;;;;;;;2.50;99.90;;;;;;5072820;28;19926;-69
2022/11/26 03:59:15;;;;;;;;;;;2.50;99.90;;;;;;5072081;28;19912;-69
2022/11/26 04:01:41;;;;;;;;;;;2.50;99.90;;;;;;5053328;28;19912;-69
2022/11/26 04:04:06;;;;;;;;;;;2.50;99.90;;;;;;5071632;28;19944;-69
2022/11/26 04:06:32;;;;;;;;;;;;;;;;;;5074879;28;20017;-69
2022/11/26 04:08:58;;;;;;;;;;;2.50;99.90;;;;;;5071197;28;19955;-69
2022/11/26 04:11:23;;;;;;;;;;;2.50;99.90;;;;;;5070871;28;19908;-69
2022/11/26 04:13:49;;;;;;;;;;;;;;;;;;5070190;28;19909;-69
2022/11/26 04:16:14;;;;;;;;;;;2.40;99.90;;;;;;5071322;28;20080;-69
2022/11/26 04:18:40;;;;;;;;;;;;;;;;;;5070197;28;19909;-69
2022/11/26 04:21:06;;;;;;;;;;;2.50;99.90;;;;;;5071297;28;20254;-69
2022/11/26 04:23:32;;;;;;;;;;;;;;;;;;5071373;28;19916;-69
2022/11/26 04:25:58;;;;;;;;;;;;;;;;;;5070823;28;19917;-69
2022/11/26 04:28:24;;;;;;;;;;;;;;;;;;5070780;28;19999;-69
2022/11/26 04:30:49;;;;;;;;;;;2.50;99.90;;;;;;5070588;28;19954;-69
2022/11/26 04:33:15;;;;;;;;;;;2.50;99.90;;;;;;5070753;28;19913;-69
2022/11/26 04:35:41;;;;;;;;;;;;;;;;;;5070811;28;19920;-69
2022/11/26 04:38:06;;;;;;;;;;;2.50;99.90;;;;;;5071347;28;19920;-69
2022/11/26 04:40:32;;;;;;;;;;;;;;;;;;5070965;28;19912;-69
2022/11/26 04:42:58;;;;;;;;;;;;;;;;;;5070854;28;19931;-69
2022/11/26 04:45:24;;;;;;;;;;;;;;;;;;5070969;28;20391;-69
2022/11/26 04:47:49;;;;;;;;;;;2.40;99.90;;;;;;5070156;28;19999;-69
2022/11/26 04:50:14;;;;;;;;;;;2.40;99.90;;;;;;5086401;28;19931;-69
2022/11/26 04:52:40;;;;;;;;;;;2.40;99.90;;;;;;5070495;28;19936;-70
2022/11/26 04:55:05;;;;;;;;;;;2.40;99.90;;;;;;5057336;28;20369;-69
2022/11/26 04:57:31;;;;;;;;;;;;;;;;;;5071020;28;20258;-69
2022/11/26 04:59:57;;;;;;;;;;;2.40;99.90;;;;;;5070085;28;20237;-69
2022/11/26 05:02:22;;;;;;;;;;;2.40;99.90;;;;;;5070440;28;20033;-69
2022/11/26 05:04:48;;;;;;;;;;;;;;;;;;5070028;28;20130;-69
2022/11/26 05:07:14;;;;;;;;;;;2.40;99.90;;;;;;5072249;28;19912;-69
2022/11/26 05:09:39;;;;;;;;;;;;;;;;;;5069990;28;19912;-69
2022/11/26 05:12:05;;;;;;;;;;;2.40;99.90;;;;;;5070621;28;19908;-69
2022/11/26 05:14:30;;;;;;;;;;;2.40;99.90;;;;;;5070494;28;19912;-69
2022/11/26 05:16:56;;;;;;;;;;;2.40;99.90;;;;;;5069420;28;20003;-70
2022/11/26 05:19:21;;;;;;;;;;;2.30;99.90;;;;;;5070552;28;19913;-69
2022/11/26 05:21:47;;;;;;;;;;;;;;;;;;5085740;28;19913;-69
2022/11/26 05:24:13;;;;;;;;;;;2.30;99.90;;;;;;5070219;28;20007;-70
2022/11/26 05:26:38;;;;;;;;;;;2.30;99.90;;;;;;5069833;28;19909;-69
2022/11/26 05:29:04;;;;;;;;;;;;;;;;;;5069927;28;19908;-69
2022/11/26 05:31:29;;;;;;;;;;;2.30;99.90;;;;;;5069741;28;19991;-69
2022/11/26 05:33:55;;;;;;;;;;;;;;;;;;5071338;28;20004;-69
2022/11/26 05:36:21;;;;;;;;;;;2.40;99.90;;;;;;5059743;28;19932;-69
2022/11/26 05:38:46;;;;;;;;;;;2.50;99.90;;;;;;5065975;28;20010;-69
2022/11/26 05:41:12;;;;;;;;;;;2.50;99.90;;;;;;5069586;28;19916;-69
2022/11/26 05:43:38;;;;;;;;;;;;;;;;;;5068694;28;20446;-69
2022/11/26 05:46:04;;;;;;;;;;;;;;;;;;5069851;28;19916;-69
2022/11/26 05:48:29;;;;;;;;;;;2.40;99.90;;;;;;5070088;28;19979;-69
2022/11/26 05:50:55;;;;;;;;;;;;;;;;;;5069186;28;20712;-69
2022/11/26 05:53:21;;;;;;;;;;;2.30;99.90;;;;;;5066711;28;19913;-69
2022/11/26 05:55:46;;;;;;;;;;;2.30;99.90;;;;;;5059371;28;20003;-69
2022/11/26 05:58:12;;;;;;;;;;;2.30;99.90;;;;;;5085465;28;19931;-69
2022/11/26 06:00:37;;;;;;;;;;;;;;;;;;5069299;28;20007;-69
2022/11/26 06:03:03;;;;;;;;;;;;;;;;;;5078116;28;19921;-69
2022/11/26 06:05:29;;;;;;;;;;;2.20;99.90;;;;;;5070126;28;20534;-69
2022/11/26 06:07:54;;;;;;;;;;;2.30;99.90;;;;;;5069266;28;19978;-69
2022/11/26 06:10:19;;;;;;;;;;;2.20;99.90;;;;;;5069988;28;19973;-69
2022/11/26 06:12:45;;;;;;;;;;;2.20;99.90;;;;;;5069393;28;19991;-70
2022/11/26 06:15:11;;;;;;;;;;;;;;;;;;5069355;28;19923;-69
2022/11/26 06:17:36;;;;;;;;;;;2.10;99.90;;;;;;5069341;28;20279;-69
2022/11/26 06:20:02;;;;;;;;;;;2.10;99.90;;;;;;5069470;28;20021;-69
2022/11/26 06:22:28;;;;;;;;;;;2.20;99.90;;;;;;5069859;28;19912;-69
2022/11/26 06:24:53;;;;;;;;;;;2.10;99.90;;;;;;5069224;28;20373;-69
2022/11/26 06:27:19;;;;;;;;;;;;;;;;;;5069501;28;20230;-69
2022/11/26 06:29:44;;;;;;;;;;;2.10;99.90;;;;;;5068661;28;20295;-69
2022/11/26 06:32:10;;;;;;;;;;;2.20;99.90;;;;;;5070552;28;19912;-70
2022/11/26 06:34:35;;;;;;;;;;;2.00;99.90;;;;;;5069622;28;19909;-69
2022/11/26 06:37:01;;;;;;;;;;;2.20;99.90;;;;;;5069215;28;19978;-69
2022/11/26 06:39:26;;;;;;;;;;;2.20;99.90;;;;;;5069718;28;20391;-69
2022/11/26 06:41:52;;;;;;;;;;;2.10;99.90;;;;;;5068983;28;20424;-69
2022/11/26 06:44:17;;;;;;;;;;;2.10;99.90;;;;;;5069312;28;19908;-70
2022/11/26 06:46:43;;;;;;;;;;;;;;;;;;5068925;28;19948;-69
2022/11/26 06:49:08;;;;;;;;;;;2.10;99.90;;;;;;5061670;28;19989;-69
2022/11/26 06:51:34;;;;;;;;;;;;;;;;;;5064704;28;19908;-69
2022/11/26 06:54:00;;;;;;;;;;;2.10;99.90;;;;;;5060608;28;20404;-69
2022/11/26 06:56:25;;;;;;;;;;;2.10;99.90;;;;;;5064779;28;19924;-69
2022/11/26 06:58:53;;;;;;;;;;;;;;;;;;5068639;28;19916;-69
2022/11/26 07:01:18;;;;;;;;;;;;;;;;;;5069450;28;19962;-69
2022/11/26 07:03:44;;;;;;;;;;;2.20;99.90;;;;;;5080479;28;20249;-69
2022/11/26 07:06:10;;;;;;;;;;;;;;;;;;5072907;28;19962;-70
2022/11/26 07:08:35;;;;;;;;;;;2.30;99.90;;;;;;5072426;28;20023;-69
2022/11/26 07:11:02;;;;;;;;;;;2.30;99.90;;;;;;5072292;28;19935;-70
2022/11/26 07:13:27;;;;;;;;;;;2.40;99.90;;;;;;5072118;28;19915;-70
2022/11/26 07:15:52;;;;;;;;;;;2.40;99.90;;;;;;5071768;28;19920;-69
2022/11/26 07:18:18;;;;;;;;;;;;;;;;;;5067973;28;19917;-69
2022/11/26 07:20:44;;;;;;;;;;;2.30;99.90;;;;;;5058198;28;19909;-69
2022/11/26 07:23:10;;;;;;;;;;;;;;;;;;5087292;28;19908;-70
2022/11/26 07:25:35;;;;;;;;;;;2.40;99.90;;;;;;5070569;28;19913;-69
2022/11/26 07:28:01;;;;;;;;;;;2.40;99.90;;;;;;5070994;28;19913;-69
2022/11/26 07:30:26;;;;;;;;;;;;;;;;;;5069737;28;19916;-69
2022/11/26 07:32:52;;;;;;;;;;;3.30;99.90;;;;;;5071938;28;19947;-69
2022/11/26 07:35:18;;;;;;;;;;;;;;;;;;5069611;28;19924;-69
2022/11/26 07:37:44;;;;;;;;;;;;;;;;;;5069507;28;19929;-69
2022/11/26 07:40:10;;;;;;;;;;;;;;;;;;5060025;28;20354;-69
2022/11/26 07:42:35;;;;;;;;;;;2.60;99.90;;;;;;5056349;28;20649;-69
2022/11/26 07:45:02;;;;;;;;;;;;;;;;;;5059929;28;20038;-69
2022/11/26 07:47:28;;;;;;;;;;;;;;;;;;5060055;28;20369;-69
2022/11/26 07:49:53;;;;;;;;;;;2.60;99.90;;;;;;5054897;28;19916;-69
2022/11/26 07:52:19;;;;;;;;;;;2.70;99.90;;;;;;5055029;28;19971;-69
2022/11/26 07:54:45;;;;;;;;;;;;;;;;;;5052309;28;19909;-69
2022/11/26 07:57:11;;;;;;;;;;;;;;;;;;5077336;28;19912;-69
2022/11/26 07:59:37;;;;;;;;;;;;;;;;;;5073895;28;19913;-69
2022/11/26 08:02:02;;;;;;;;;;;2.70;99.90;;;;;;5066304;28;19912;-69
2022/11/26 08:04:27;;;;;;;;;;;2.80;99.90;;;;;;5058651;28;19915;-69
2022/11/26 08:06:53;;;;;;;;;;;2.90;99.90;;;;;;5063002;28;19919;-69
2022/11/26 08:09:18;;;;;;;;;;;2.90;99.90;;;;;;5063096;28;20312;-69
2022/11/26 08:11:44;;;;;;;;;;;3.00;99.90;;;;;;5059708;28;19931;-69
2022/11/26 08:14:10;;;;;;;;;;;3.00;99.90;;;;;;5065022;28;19916;-69
2022/11/26 08:16:36;;;;;;;;;;;3.00;99.90;;;;;;5074632;28;19973;-69
2022/11/26 08:19:03;;;;;;;;;;;3.10;99.90;;;;;;5075053;28;19920;-70
2022/11/26 08:21:29;;;;;;;;;;;;;;;;;;5070605;28;20424;-69
2022/11/26 08:23:55;;;;;;;;;;;3.10;99.90;;;;;;5069008;28;19951;-69
2022/11/26 08:26:21;;;;;;;;;;;3.20;99.90;;;;;;5074135;28;20289;-67
2022/11/26 08:28:46;;;;;;;;;;;3.20;99.90;;;;;;5068663;28;19908;-67
2022/11/26 08:31:13;;;;;;;;;;;3.30;99.90;;;;;;5069557;28;19919;-67
2022/11/26 08:33:39;;;;;;;;;;;;;;;;;;5067868;28;19909;-67
2022/11/26 08:36:05;;;;;;;;;;;;;;;;;;5069226;28;19919;-68
2022/11/26 08:38:31;;;;;;;;;;;;;;;;;;5067253;28;20378;-68
2022/11/26 08:41:00;;;;;;;;;;;3.70;99.90;;;;;;5067585;28;20041;-68
2022/11/26 08:43:25;;;;;;;;;;;;;;;;;;5066741;28;19916;-68
2022/11/26 08:45:52;;;;;;;;;;;;;;;;;;5083720;28;19920;-68
2022/11/26 08:48:18;;;;;;;;;;;;;;;;;;5061204;28;19959;-68
2022/11/26 08:50:43;;;;;;;;;;;4.20;99.90;;;;;;5050282;28;19912;-68
2022/11/26 08:53:08;;;;;;;;;;;4.30;99.90;;;;;;5050346;28;19928;-68
2022/11/26 08:55:34;;;;;;;;;;;4.40;99.90;;;;;;5057430;28;19912;-68
2022/11/26 08:57:59;;;;;;;;;;;4.60;99.90;;;;;;5069447;28;19969;-68
2022/11/26 09:00:25;;;;;;;;;;;;;;;;;;5069407;28;19955;-69
2022/11/26 09:02:51;;;;;;;;;;;4.70;99.90;;;;;;5068218;28;20408;-69
2022/11/26 09:05:16;;;;;;;;;;;4.80;99.90;;;;;;5069486;28;19931;-69
2022/11/26 09:07:42;;;;;;;;;;;;;;;;;;5067343;28;19973;-68
2022/11/26 09:10:07;;;;;;;;;;;5.00;99.90;;;;;;5058453;28;20380;-68
2022/11/26 09:12:33;;;;;;;;;;;;;;;;;;5064224;28;19935;-68
2022/11/26 09:14:59;;;;;;;;;;;5.20;99.90;;;;;;5071898;28;20346;-68
2022/11/26 09:17:24;;;;;;;;;;;5.30;99.90;;;;;;5071761;28;19921;-69
2022/11/26 09:19:50;;;;;;;;;;;;;;;;;;5068455;28;19908;-69
2022/11/26 09:22:15;;;;;;;;;;;5.50;99.90;;;;;;5068708;28;20373;-68
2022/11/26 09:24:41;;;;;;;;;;;;;;;;;;5068738;28;19919;-69
2022/11/26 09:27:09;;;;;;;;;;;5.60;99.90;;;;;;5066190;28;19965;-69
2022/11/26 09:29:35;;;;;;;;;;;5.60;99.90;;;;;;5069415;28;19908;-69
2022/11/26 09:32:00;;;;;;;;;;;;;;;;;;5069208;28;19930;-68
2022/11/26 09:34:26;;;;;;;;;;;;;;;;;;5069907;28;19926;-69
2022/11/26 09:36:52;;;;;;;;;;;;;;;;;;5068710;28;20182;-68
2022/11/26 09:39:18;;;;;;;;;;;5.90;99.90;;;;;;5069336;28;20006;-68
2022/11/26 09:41:44;;;;;;;;;;;;;;;;;;5069020;28;19909;-68
2022/11/26 09:44:31;;;;;;;;;;;6.00;99.90;;;;;;5069664;28;19966;-69
2022/11/26 09:47:02;;;;;;;;;;;6.10;99.90;;;;;;5067068;28;20256;-69
2022/11/26 09:49:31;;;;;;;;;;;6.20;99.90;;;;;;5072212;28;19982;-69
2022/11/26 09:51:57;;;;;;;;;;;;;;;;;;5069125;28;20226;-69
2022/11/26 09:54:23;;;;;;;;;;;6.40;99.90;;;;;;5069111;28;19924;-68
2022/11/26 09:56:49;;;;;;;;;;;;;;;;;;5068237;28;19917;-68
2022/11/26 09:59:16;;;;;;;;;;;6.50;99.90;;;;;;5074340;28;20045;-69
2022/11/26 10:01:42;;;;;;;;;;;6.70;99.90;;;;;;5051903;28;19920;-69
2022/11/26 10:04:08;;;;;;;;;;;6.70;99.90;;;;;;5069146;28;19912;-68
2022/11/26 10:06:47;;;;;;;;;;;6.80;99.90;;;;;;5068640;28;19948;-69
2022/11/26 10:09:13;;;;;;;;;;;6.80;99.90;;;;;;5060215;28;19917;-69
2022/11/26 10:11:57;;;;;;;;;;;6.90;99.90;;;;;;5068912;28;19981;-69
2022/11/26 10:14:41;;;;;;;;;;;6.90;99.90;;;;;;5071903;28;19928;-69
2022/11/26 10:17:25;;;;;;;;;;;6.90;99.90;;;;;;5061458;28;19962;-69
2022/11/26 10:20:09;;;;;;;;;;;7.00;99.90;;;;;;5068844;28;19995;-69
2022/11/26 10:22:44;;;;;;;;;;;7.00;99.90;;;;;;5068443;28;19938;-69
2022/11/26 10:25:14;;;;;;;;;;;7.10;99.90;;;;;;5061336;28;19909;-69
2022/11/26 10:27:41;;;;;;;;;;;7.20;99.90;;;;;;5068491;28;19908;-69
2022/11/26 10:30:07;;;;;;;;;;;;;;;;;;5068758;28;19917;-68
2022/11/26 10:32:32;;;;;;;;;;;;;;;;;;5069065;28;20021;-69
2022/11/26 10:34:58;;;;;;;;;;;;;;;;;;5068834;28;19920;-69
2022/11/26 10:37:25;;;;;;;;;;;7.50;99.90;;;;;;5069372;28;20317;-69
2022/11/26 10:39:55;;;;;;;;;;;7.40;99.90;;;;;;5072395;28;19915;-70
2022/11/26 10:42:21;;;;;;;;;;;7.50;99.90;;;;;;5072726;28;20144;-69
2022/11/26 10:44:47;;;;;;;;;;;;;;;;;;5068806;28;20042;-69
2022/11/26 10:47:13;;;;;;;;;;;;;;;;;;5072501;28;19915;-69
2022/11/26 10:49:39;;;;;;;;;;;;;;;;;;5071332;28;19908;-69
2022/11/26 10:52:04;;;;;;;;;;;;;;;;;;5072098;28;19908;-69
2022/11/26 10:54:37;;;;;;;;;;;7.70;99.90;;;;;;5088053;28;19912;-69
2022/11/26 10:57:08;;;;;;;;;;;7.70;99.90;;;;;;5066498;28;19996;-69
2022/11/26 10:59:45;;;;;;;;;;;7.70;99.90;;;;;;5077411;28;19923;-69
2022/11/26 11:02:19;;;;;;;;;;;7.80;99.90;;;;;;5071665;28;19916;-68
2022/11/26 11:04:45;;;;;;;;;;;;;;;;;;5072372;28;20353;-69
2022/11/26 11:07:29;;;;;;;;;;;7.90;99.90;;;;;;5072100;28;19919;-69
2022/11/26 11:09:55;;;;;;;;;;;;;;;;;;5065028;28;19991;-68
2022/11/26 11:12:21;;;;;;;;;;;;;;;;;;5072124;28;19947;-69
2022/11/26 11:14:47;;;;;;;;;;;;;;;;;;5065020;28;19966;-68
2022/11/26 11:17:18;;;;;;;;;;;7.90;99.90;;;;;;5068908;28;19930;-69
2022/11/26 11:19:44;;;;;;;;;;;;;;;;;;5063671;28;19952;-71
2022/11/26 11:22:17;;;;;;;;;;;8.00;99.90;;;;;;5071866;28;19932;-68
2022/11/26 11:24:44;;;;;;;;;;;8.00;99.90;;;;;;5071641;28;19916;-68
2022/11/26 11:27:10;;;;;;;;;;;;;;;;;;5071213;28;19990;-69
2022/11/26 11:29:36;;;;;;;;;;;8.00;99.90;;;;;;5071770;28;20334;-69
2022/11/26 11:32:03;;;;;;;;;;;;;;;;;;5071666;28;20008;-69
2022/11/26 11:34:29;;;;;;;;;;;;;;;;;;5071518;28;20000;-69
2022/11/26 11:37:13;;;;;;;;;;;8.20;99.90;;;;;;5079180;28;19999;-69
2022/11/26 11:39:39;;;;;;;;;;;8.30;99.90;;;;;;5074589;28;19958;-69
2022/11/26 11:42:34;;;;;;;;;;;8.40;99.90;;;;;;5071683;28;19909;-68
2022/11/26 11:45:00;;;;;;;;;;;8.50;99.90;;;;;;5057253;28;20368;-68
2022/11/26 11:47:47;;;;;;;;;;;8.60;99.90;;;;;;5071867;28;19999;-69
2022/11/26 11:50:12;;;;;;;;;;;8.70;99.90;;;;;;5066541;28;20415;-69
2022/11/26 11:52:38;;;;;;;;;;;;;;;;;;5071492;28;19939;-69
2022/11/26 11:55:12;;;;;;;;;;;8.70;99.90;;;;;;5072439;28;19999;-68
2022/11/26 11:57:38;;;;;;;;;;;;;;;;;;5071193;28;19912;-69
2022/11/26 12:00:12;;;;;;;;;;;8.90;99.90;;;;;;5075600;28;19991;-69
2022/11/26 12:02:38;;;;;;;;;;;;;;;;;;5063695;28;20022;-68
2022/11/26 12:05:03;;;;;;;;;;;;;;;;;;5071277;28;19940;-69
2022/11/26 12:07:29;;;;;;;;;;;;;;;;;;5071379;28;20011;-69
2022/11/26 12:10:08;;;;;;;;;;;8.90;99.90;;;;;;5070588;28;20356;-69
2022/11/26 12:12:33;;;;;;;;;;;8.90;99.90;;;;;;5070971;28;19913;-69
2022/11/26 12:14:59;;;;;;;;;;;;;;;;;;5070883;28;19909;-69
2022/11/26 12:17:37;;;;;;;;;;;8.90;99.90;;;;;;5070674;28;19929;-69
2022/11/26 12:20:03;;;;;;;;;;;8.90;99.90;;;;;;5071176;28;19965;-69
2022/11/26 12:22:35;;;;;;;;;;;8.90;99.90;;;;;;5071029;28;21027;-68
2022/11/26 12:25:01;;;;;;;;;;;;;;;;;;5070597;28;20387;-68
2022/11/26 12:27:42;;;;;;;;;;;8.90;99.90;;;;;;5070921;28;19999;-68
2022/11/26 12:30:10;;;;;;;;;;;;;;;;;;5072042;28;20241;-68
2022/11/26 12:32:36;;;;;;;;;;;;;;;;;;5077094;28;19916;-69
2022/11/26 12:35:10;;;;;;;;;;;8.90;99.90;;;;;;5070628;28;20250;-69
2022/11/26 12:37:36;;;;;;;;;;;;;;;;;;5074506;28;19921;-68
2022/11/26 12:40:07;;;;;;;;;;;9.10;99.90;;;;;;5069822;28;19954;-68
2022/11/26 12:42:33;;;;;;;;;;;;;;;;;;5070406;28;19913;-68
2022/11/26 12:45:11;;;;;;;;;;;9.10;99.90;;;;;;5070089;28;20361;-69
2022/11/26 12:47:39;;;;;;;;;;;9.20;99.90;;;;;;5069897;28;19912;-69
2022/11/26 12:50:05;;;;;;;;;;;;;;;;;;5070108;28;20007;-69
2022/11/26 12:52:36;;;;;;;;;;;9.30;99.90;;;;;;5060444;28;20949;-68
2022/11/26 12:55:20;;;;;;;;;;;9.30;99.90;;;;;;5069979;28;19931;-69
2022/11/26 12:57:54;;;;;;;;;;;9.40;99.90;;;;;;5075026;28;20438;-68
2022/11/26 13:00:26;;;;;;;;;;;9.50;99.90;;;;;;5072778;28;20381;-69
2022/11/26 13:02:52;;;;;;;;;;;;;;;;;;5069351;28;19912;-68
2022/11/26 13:05:25;;;;;;;;;;;9.60;99.90;;;;;;5085666;28;20431;-69
2022/11/26 13:07:51;;;;;;;;;;;;;;;;;;5069628;28;19908;-69
2022/11/26 13:10:17;;;;;;;;;;;;;;;;;;5069093;28;20411;-68
2022/11/26 13:12:45;;;;;;;;;;;;;;;;;;5067338;28;19995;-68
2022/11/26 13:15:13;;;;;;;;;;;9.90;99.90;;;;;;5069182;28;19923;-68
2022/11/26 13:17:43;;;;;;;;;;;10.00;99.90;;;;;;5069184;28;20026;-69
2022/11/26 13:20:27;;;;;;;;;;;10.00;99.90;;;;;;5069379;28;19999;-69
2022/11/26 13:22:59;;;;;;;;;;;10.00;99.90;;;;;;5068831;28;19922;-68
2022/11/26 13:25:33;;;;;;;;;;;10.00;99.90;;;;;;5068931;28;20008;-68
2022/11/26 13:27:59;;;;;;;;;;;;;;;;;;5069972;28;19917;-68
2022/11/26 13:30:31;;;;;;;;;;;10.00;99.90;;;;;;5068488;28;20283;-68
2022/11/26 13:32:57;;;;;;;;;;;;;;;;;;5068900;28;19959;-68
2022/11/26 13:35:31;;;;;;;;;;;10.00;99.90;;;;;;5069308;28;19944;-69
2022/11/26 13:37:57;;;;;;;;;;;;;;;;;;5068763;28;20318;-69
2022/11/26 13:40:46;;;;;;;;;;;10.00;99.90;;;;;;5069317;28;19986;-68
2022/11/26 13:43:14;;;;;;;;;;;;;;;;;;5060085;28;20572;-69
2022/11/26 13:45:55;;;;;;;;;;;10.00;99.90;;;;;;5068345;28;19915;-69
2022/11/26 13:48:21;;;;;;;;;;;;;;;;;;5069607;28;19909;-69
2022/11/26 13:50:49;;;;;;;;;;;10.00;99.90;;;;;;5068971;28;19931;-69
2022/11/26 13:53:18;;;;;;;;;;;;;;;;;;5056014;28;20003;-69
2022/11/26 13:55:52;;;;;;;;;;;9.90;99.90;;;;;;5069040;28;19977;-69
2022/11/26 13:58:29;;;;;;;;;;;9.90;99.90;;;;;;5084808;28;19912;-69
2022/11/26 14:00:55;;;;;;;;;;;;;;;;;;5069140;28;19984;-69
2022/11/26 14:03:56;;;;;;;;;;;10.00;99.90;;;;;;5084515;28;20329;-68
2022/11/26 14:06:22;;;;;;;;;;;10.00;99.90;;;;;;5006523;28;19964;-68
2022/11/26 14:08:48;;;;;;;;;;;;;;;;;;5006290;28;19922;-68
2022/11/26 14:11:32;;;;;;;;;;;10.00;99.90;;;;;;5006880;28;19916;-67
2022/11/26 14:13:58;;;;;;;;;;;;;;;;;;5009954;28;20032;-68
2022/11/26 14:16:43;;;;;;;;;;;10.00;99.90;;;;;;5011057;28;19913;-69
2022/11/26 14:19:08;;;;;;;;;;;10.00;99.90;;;;;;5010281;28;19913;-69
2022/11/26 14:21:34;;;;;;;;;;;;;;;;;;5010863;28;20290;-68
2022/11/26 14:24:00;;;;;;;;;;;10.00;99.90;;;;;;5010418;28;19910;-70
2022/11/26 14:26:26;;;;;;;;;;;;;;;;;;5010942;28;19918;-69
2022/11/26 14:29:06;;;;;;;;;;;9.90;99.90;;;;;;5006621;28;19925;-68
2022/11/26 14:31:32;;;;;;;;;;;;;;;;;;5010950;28;20310;-68
2022/11/26 14:33:58;;;;;;;;;;;;;;;;;;5011009;28;19913;-68
2022/11/26 14:36:24;;;;;;;;;;;;;;;;;;5011235;28;20017;-69
2022/11/26 14:38:50;;;;;;;;;;;;;;;;;;5010436;28;19922;-68
2022/11/26 14:41:15;;;;;;;;;;;9.70;99.90;;;;;;5058321;28;19908;-69
2022/11/26 14:43:41;;;;;;;;;;;;;;;;;;5075745;28;19925;-68
2022/11/26 14:46:15;;;;;;;;;;;9.50;99.90;;;;;;5072786;28;20019;-68
2022/11/26 14:48:42;;;;;;;;;;;9.40;99.90;;;;;;5072176;28;19918;-68
2022/11/26 14:51:07;;;;;;;;;;;9.40;99.90;;;;;;5077617;28;19913;-69
2022/11/26 14:53:33;;;;;;;;;;;9.30;99.90;;;;;;5072270;28;20364;-68
2022/11/26 14:55:59;;;;;;;;;;;;;;;;;;5072294;28;19920;-68
2022/11/26 14:58:31;;;;;;;;;;;9.20;99.90;;;;;;5072125;28;19919;-67
2022/11/26 15:01:15;;;;;;;;;;;9.10;99.90;;;;;;5072379;28;19918;-68
2022/11/26 15:03:41;;;;;;;;;;;;;;;;;;5072233;28;19916;-68
2022/11/26 15:06:24;;;;;;;;;;;9.10;99.90;;;;;;5072494;28;19962;-69
2022/11/26 15:08:49;;;;;;;;;;;9.00;99.90;;;;;;5073011;28;19913;-68
2022/11/26 15:11:17;;;;;;;;;;;8.90;99.90;;;;;;5071615;28;20200;-68
2022/11/26 15:13:43;;;;;;;;;;;;;;;;;;5073382;28;19920;-68
2022/11/26 15:16:26;;;;;;;;;;;8.90;99.90;;;;;;5072599;28;19920;-68
2022/11/26 15:18:52;;;;;;;;;;;8.80;99.90;;;;;;5053699;28;19995;-68
2022/11/26 15:21:19;;;;;;;;;;;8.80;99.90;;;;;;5072321;28;20280;-69